sensor_id;sensor_type;location;lat;lon;timestamp;temperature;humidity
4399;DHT22;2213;49.720;7.296;2022-11-30T00:00:22;6.50;99.90
4399;DHT22;2213;49.720;7.296;2022-11-30T00:02:54;6.40;99.90
4399;DHT22;2213;49.720;7.296;2022-11-30T00:05:26;6.40;99.90
4399;DHT22;2213;49.720;7.296;2022-11-30T00:07:55;6.50;99.90
4399;DHT22;2213;49.720;7.296;2022-11-30T00:10:28;6.40;99.90
4399;DHT22;2213;49.720;7.296;2022-11-30T00:12:58;6.40;99.90
4399;DHT22;2213;49.720;7.296;2022-11-30T00:15:28;6.40;99.90
4399;DHT22;2213;49.720;7.296;2022-11-30T00:17:58;6.40;99.90
4399;DHT22;2213;49.720;7.296;2022-11-30T00:20:28;6.40;99.90
4399;DHT22;2213;49.720;7.296;2022-11-30T00:22:57;6.50;99.90
4399;DHT22;2213;49.720;7.296;2022-11-30T00:25:27;6.50;99.90
4399;DHT22;2213;49.720;7.296;2022-11-30T00:28:00;6.40;99.90
4399;DHT22;2213;49.720;7.296;2022-11-30T00:30:29;6.50;99.90
4399;DHT22;2213;49.720;7.296;2022-11-30T00:32:59;6.40;99.90
4399;DHT22;2213;49.720;7.296;2022-11-30T00:35:30;6.40;99.90
4399;DHT22;2213;49.720;7.296;2022-11-30T00:38:01;6.50;99.90
4399;DHT22;2213;49.720;7.296;2022-11-30T00:40:30;6.40;99.90
4399;DHT22;2213;49.720;7.296;2022-11-30T00:43:00;6.50;99.90
4399;DHT22;2213;49.720;7.296;2022-11-30T00:45:29;6.50;99.90
4399;DHT22;2213;49.720;7.296;2022-11-30T00:47:59;6.60;99.90
4399;DHT22;2213;49.720;7.296;2022-11-30T00:50:30;6.50;99.90
4399;DHT22;2213;49.720;7.296;2022-11-30T00:52:59;6.50;99.90
4399;DHT22;2213;49.720;7.296;2022-11-30T00:55:28;6.50;99.90
4399;DHT22;2213;49.720;7.296;2022-11-30T00:57:58;6.50;99.90
4399;DHT22;2213;49.720;7.296;2022-11-30T01:00:27;6.50;99.90
4399;DHT22;2213;49.720;7.296;2022-11-30T01:02:57;6.50;99.90
4399;DHT22;2213;49.720;7.296;2022-11-30T01:05:27;6.30;99.90
4399;DHT22;2213;49.720;7.296;2022-11-30T01:08:00;6.50;99.90
4399;DHT22;2213;49.720;7.296;2022-11-30T01:10:30;6.40;99.90
4399;DHT22;2213;49.720;7.296;2022-11-30T01:13:00;6.50;99.90
4399;DHT22;2213;49.720;7.296;2022-11-30T01:15:29;6.50;99.90
4399;DHT22;2213;49.720;7.296;2022-11-30T01:17:58;6.40;99.90
4399;DHT22;2213;49.720;7.296;2022-11-30T01:20:27;6.40;99.90
4399;DHT22;2213;49.720;7.296;2022-11-30T01:22:56;6.30;99.90
4399;DHT22;2213;49.720;7.296;2022-11-30T01:25:27;6.30;99.90
4399;DHT22;2213;49.720;7.296;2022-11-30T01:27:57;6.30;99.90
4399;DHT22;2213;49.720;7.296;2022-11-30T01:30:27;6.30;99.90
4399;DHT22;2213;49.720;7.296;2022-11-30T01:33:01;6.30;99.90
4399;DHT22;2213;49.720;7.296;2022-11-30T01:35:30;6.30;99.90
4399;DHT22;2213;49.720;7.296;2022-11-30T01:37:59;6.30;99.90
4399;DHT22;2213;49.720;7.296;2022-11-30T01:40:30;6.30;99.90
4399;DHT22;2213;49.720;7.296;2022-11-30T01:43:00;6.30;99.90
4399;DHT22;2213;49.720;7.296;2022-11-30T01:45:29;6.30;99.90
4399;DHT22;2213;49.720;7.296;2022-11-30T01:47:58;6.30;99.90
4399;DHT22;2213;49.720;7.296;2022-11-30T01:50:32;6.30;99.90
4399;DHT22;2213;49.720;7.296;2022-11-30T01:53:05;6.30;99.90
4399;DHT22;2213;49.720;7.296;2022-11-30T01:55:42;6.30;99.90
4399;DHT22;2213;49.720;7.296;2022-11-30T01:58:21;6.30;99.90
4399;DHT22;2213;49.720;7.296;2022-11-30T02:00:53;6.30;99.90
4399;DHT22;2213;49.720;7.296;2022-11-30T02:03:27;6.20;99.90
4399;DHT22;2213;49.720;7.296;2022-11-30T02:06:02;6.30;99.90
4399;DHT22;2213;49.720;7.296;2022-11-30T02:08:33;6.20;99.90
4399;DHT22;2213;49.720;7.296;2022-11-30T02:11:06;6.30;99.90
4399;DHT22;2213;49.720;7.296;2022-11-30T02:16:47;6.30;99.90
4399;DHT22;2213;49.720;7.296;2022-11-30T02:23:08;6.30;99.90
4399;DHT22;2213;49.720;7.296;2022-11-30T02:26:22;6.30;99.90
4399;DHT22;2213;49.720;7.296;2022-11-30T02:29:11;6.30;99.90
4399;DHT22;2213;49.720;7.296;2022-11-30T02:31:49;6.30;99.90
4399;DHT22;2213;49.720;7.296;2022-11-30T02:34:24;6.30;99.90
4399;DHT22;2213;49.720;7.296;2022-11-30T02:36:59;6.30;99.90
4399;DHT22;2213;49.720;7.296;2022-11-30T02:39:29;6.30;99.90
4399;DHT22;2213;49.720;7.296;2022-11-30T02:41:59;6.20;99.90
4399;DHT22;2213;49.720;7.296;2022-11-30T02:44:29;6.20;99.90
4399;DHT22;2213;49.720;7.296;2022-11-30T02:47:08;6.30;99.90
4399;DHT22;2213;49.720;7.296;2022-11-30T02:49:49;6.20;99.90
4399;DHT22;2213;49.720;7.296;2022-11-30T02:52:24;6.20;99.90
4399;DHT22;2213;49.720;7.296;2022-11-30T02:54:58;6.30;99.90
4399;DHT22;2213;49.720;7.296;2022-11-30T02:57:30;6.30;99.90
4399;DHT22;2213;49.720;7.296;2022-11-30T03:00:03;6.30;99.90
4399;DHT22;2213;49.720;7.296;2022-11-30T03:02:34;6.30;99.90
4399;DHT22;2213;49.720;7.296;2022-11-30T03:05:05;6.30;99.90
4399;DHT22;2213;49.720;7.296;2022-11-30T03:07:37;6.30;99.90
4399;DHT22;2213;49.720;7.296;2022-11-30T03:10:10;6.30;99.90
4399;DHT22;2213;49.720;7.296;2022-11-30T03:12:40;6.30;99.90
4399;DHT22;2213;49.720;7.296;2022-11-30T03:15:14;6.30;99.90
4399;DHT22;2213;49.720;7.296;2022-11-30T03:17:45;6.40;99.90
4399;DHT22;2213;49.720;7.296;2022-11-30T03:20:14;6.30;99.90
4399;DHT22;2213;49.720;7.296;2022-11-30T03:22:44;6.30;99.90
4399;DHT22;2213;49.720;7.296;2022-11-30T03:25:19;6.30;99.90
4399;DHT22;2213;49.720;7.296;2022-11-30T03:27:49;6.30;99.90
4399;DHT22;2213;49.720;7.296;2022-11-30T03:30:20;6.30;99.90
4399;DHT22;2213;49.720;7.296;2022-11-30T03:32:49;6.30;99.90
4399;DHT22;2213;49.720;7.296;2022-11-30T03:35:19;6.40;99.90
4399;DHT22;2213;49.720;7.296;2022-11-30T03:37:49;6.40;99.90
4399;DHT22;2213;49.720;7.296;2022-11-30T03:40:20;6.40;99.90
4399;DHT22;2213;49.720;7.296;2022-11-30T03:42:49;6.40;99.90
4399;DHT22;2213;49.720;7.296;2022-11-30T03:45:22;6.40;99.90
4399;DHT22;2213;49.720;7.296;2022-11-30T03:47:52;6.40;99.90
4399;DHT22;2213;49.720;7.296;2022-11-30T03:50:22;6.30;99.90
4399;DHT22;2213;49.720;7.296;2022-11-30T03:52:53;6.40;99.90
4399;DHT22;2213;49.720;7.296;2022-11-30T03:55:22;6.40;99.90
4399;DHT22;2213;49.720;7.296;2022-11-30T03:57:52;6.40;99.90
4399;DHT22;2213;49.720;7.296;2022-11-30T04:00:23;6.40;99.90
4399;DHT22;2213;49.720;7.296;2022-11-30T04:02:53;6.50;99.90
4399;DHT22;2213;49.720;7.296;2022-11-30T04:05:23;6.50;99.90
4399;DHT22;2213;49.720;7.296;2022-11-30T04:07:52;6.50;99.90
4399;DHT22;2213;49.720;7.296;2022-11-30T04:10:22;6.50;99.90
4399;DHT22;2213;49.720;7.296;2022-11-30T04:12:52;6.40;99.90
4399;DHT22;2213;49.720;7.296;2022-11-30T04:15:23;6.50;99.90
4399;DHT22;2213;49.720;7.296;2022-11-30T04:17:53;6.50;99.90
4399;DHT22;2213;49.720;7.296;2022-11-30T04:20:23;6.50;99.90
4399;DHT22;2213;49.720;7.296;2022-11-30T04:22:55;6.50;99.90
4399;DHT22;2213;49.720;7.296;2022-11-30T04:25:25;6.50;99.90
4399;DHT22;2213;49.720;7.296;2022-11-30T04:27:55;6.50;99.90
4399;DHT22;2213;49.720;7.296;2022-11-30T04:30:26;6.50;99.90
4399;DHT22;2213;49.720;7.296;2022-11-30T04:32:57;6.50;99.90
4399;DHT22;2213;49.720;7.296;2022-11-30T04:35:26;6.50;99.90
4399;DHT22;2213;49.720;7.296;2022-11-30T04:37:56;6.50;99.90
4399;DHT22;2213;49.720;7.296;2022-11-30T04:40:25;6.50;99.90
4399;DHT22;2213;49.720;7.296;2022-11-30T04:42:55;6.50;99.90
4399;DHT22;2213;49.720;7.296;2022-11-30T04:45:26;6.50;99.90
4399;DHT22;2213;49.720;7.296;2022-11-30T04:48:01;6.50;99.90
4399;DHT22;2213;49.720;7.296;2022-11-30T04:50:31;6.40;99.90
4399;DHT22;2213;49.720;7.296;2022-11-30T04:53:00;6.50;99.90
4399;DHT22;2213;49.720;7.296;2022-11-30T04:55:30;6.50;99.90
4399;DHT22;2213;49.720;7.296;2022-11-30T04:57:59;6.40;99.90
4399;DHT22;2213;49.720;7.296;2022-11-30T05:00:30;6.50;99.90
4399;DHT22;2213;49.720;7.296;2022-11-30T05:02:59;6.50;99.90
4399;DHT22;2213;49.720;7.296;2022-11-30T05:05:32;6.50;99.90
4399;DHT22;2213;49.720;7.296;2022-11-30T05:08:01;6.50;99.90
4399;DHT22;2213;49.720;7.296;2022-11-30T05:10:31;6.50;99.90
4399;DHT22;2213;49.720;7.296;2022-11-30T05:13:00;6.50;99.90
4399;DHT22;2213;49.720;7.296;2022-11-30T05:15:31;6.50;99.90
4399;DHT22;2213;49.720;7.296;2022-11-30T05:18:01;6.60;99.90
4399;DHT22;2213;49.720;7.296;2022-11-30T05:20:33;6.50;99.90
4399;DHT22;2213;49.720;7.296;2022-11-30T05:23:02;6.60;99.90
4399;DHT22;2213;49.720;7.296;2022-11-30T05:25:32;6.50;99.90
4399;DHT22;2213;49.720;7.296;2022-11-30T05:28:02;6.50;99.90
4399;DHT22;2213;49.720;7.296;2022-11-30T05:30:33;6.50;99.90
4399;DHT22;2213;49.720;7.296;2022-11-30T05:33:03;6.50;99.90
4399;DHT22;2213;49.720;7.296;2022-11-30T05:35:32;6.50;99.90
4399;DHT22;2213;49.720;7.296;2022-11-30T05:38:02;6.50;99.90
4399;DHT22;2213;49.720;7.296;2022-11-30T05:40:31;6.50;99.90
4399;DHT22;2213;49.720;7.296;2022-11-30T05:43:02;6.60;99.90
4399;DHT22;2213;49.720;7.296;2022-11-30T05:45:33;6.60;99.90
4399;DHT22;2213;49.720;7.296;2022-11-30T05:48:04;6.50;99.90
4399;DHT22;2213;49.720;7.296;2022-11-30T05:50:34;6.60;99.90
4399;DHT22;2213;49.720;7.296;2022-11-30T05:53:04;6.50;99.90
4399;DHT22;2213;49.720;7.296;2022-11-30T05:55:34;6.50;99.90
4399;DHT22;2213;49.720;7.296;2022-11-30T05:58:04;6.50;99.90
4399;DHT22;2213;49.720;7.296;2022-11-30T06:00:34;6.50;99.90
4399;DHT22;2213;49.720;7.296;2022-11-30T06:03:04;6.40;99.90
4399;DHT22;2213;49.720;7.296;2022-11-30T06:05:33;6.50;99.90
4399;DHT22;2213;49.720;7.296;2022-11-30T06:08:03;6.40;99.90
4399;DHT22;2213;49.720;7.296;2022-11-30T06:10:34;6.40;99.90
4399;DHT22;2213;49.720;7.296;2022-11-30T06:13:05;6.50;99.90
4399;DHT22;2213;49.720;7.296;2022-11-30T06:15:37;6.50;99.90
4399;DHT22;2213;49.720;7.296;2022-11-30T06:18:07;6.50;99.90
4399;DHT22;2213;49.720;7.296;2022-11-30T06:20:39;6.50;99.90
4399;DHT22;2213;49.720;7.296;2022-11-30T06:23:07;6.50;99.90
4399;DHT22;2213;49.720;7.296;2022-11-30T06:25:37;6.40;99.90
4399;DHT22;2213;49.720;7.296;2022-11-30T06:28:09;6.50;99.90
4399;DHT22;2213;49.720;7.296;2022-11-30T06:30:40;6.50;99.90
4399;DHT22;2213;49.720;7.296;2022-11-30T06:33:08;6.50;99.90
4399;DHT22;2213;49.720;7.296;2022-11-30T06:35:44;6.60;99.90
4399;DHT22;2213;49.720;7.296;2022-11-30T06:38:13;6.50;99.90
4399;DHT22;2213;49.720;7.296;2022-11-30T06:40:43;6.60;99.90
4399;DHT22;2213;49.720;7.296;2022-11-30T06:43:12;6.60;99.90
4399;DHT22;2213;49.720;7.296;2022-11-30T06:45:44;6.60;99.90
4399;DHT22;2213;49.720;7.296;2022-11-30T06:48:13;6.60;99.90
4399;DHT22;2213;49.720;7.296;2022-11-30T06:50:44;6.60;99.90
4399;DHT22;2213;49.720;7.296;2022-11-30T06:53:17;6.60;99.90
4399;DHT22;2213;49.720;7.296;2022-11-30T06:55:47;6.60;99.90
4399;DHT22;2213;49.720;7.296;2022-11-30T06:58:17;6.60;99.90
4399;DHT22;2213;49.720;7.296;2022-11-30T07:00:47;6.50;99.90
4399;DHT22;2213;49.720;7.296;2022-11-30T07:03:18;6.60;99.90
4399;DHT22;2213;49.720;7.296;2022-11-30T07:05:49;6.60;99.90
4399;DHT22;2213;49.720;7.296;2022-11-30T07:08:20;6.60;99.90
4399;DHT22;2213;49.720;7.296;2022-11-30T07:10:50;6.60;99.90
4399;DHT22;2213;49.720;7.296;2022-11-30T07:13:19;6.60;99.90
4399;DHT22;2213;49.720;7.296;2022-11-30T07:15:50;6.60;99.90
4399;DHT22;2213;49.720;7.296;2022-11-30T07:18:20;6.60;99.90
4399;DHT22;2213;49.720;7.296;2022-11-30T07:20:58;6.60;99.90
4399;DHT22;2213;49.720;7.296;2022-11-30T07:23:28;6.60;99.90
4399;DHT22;2213;49.720;7.296;2022-11-30T07:26:22;6.50;99.90
4399;DHT22;2213;49.720;7.296;2022-11-30T07:28:54;6.60;99.90
4399;DHT22;2213;49.720;7.296;2022-11-30T07:31:27;6.60;99.90
4399;DHT22;2213;49.720;7.296;2022-11-30T07:34:02;6.60;99.90
4399;DHT22;2213;49.720;7.296;2022-11-30T07:36:33;6.60;99.90
4399;DHT22;2213;49.720;7.296;2022-11-30T07:39:04;6.70;99.90
4399;DHT22;2213;49.720;7.296;2022-11-30T07:41:33;6.70;99.90
4399;DHT22;2213;49.720;7.296;2022-11-30T07:44:03;6.70;99.90
4399;DHT22;2213;49.720;7.296;2022-11-30T07:46:35;6.80;99.90
4399;DHT22;2213;49.720;7.296;2022-11-30T07:49:06;6.90;99.90
4399;DHT22;2213;49.720;7.296;2022-11-30T07:51:36;6.80;99.90
4399;DHT22;2213;49.720;7.296;2022-11-30T07:54:07;6.80;99.90
4399;DHT22;2213;49.720;7.296;2022-11-30T07:56:36;6.80;99.90
4399;DHT22;2213;49.720;7.296;2022-11-30T07:59:05;6.80;99.90
4399;DHT22;2213;49.720;7.296;2022-11-30T08:01:36;6.80;99.90
4399;DHT22;2213;49.720;7.296;2022-11-30T08:04:06;6.90;99.90
4399;DHT22;2213;49.720;7.296;2022-11-30T08:06:41;6.80;99.90
4399;DHT22;2213;49.720;7.296;2022-11-30T08:09:11;6.80;99.90
4399;DHT22;2213;49.720;7.296;2022-11-30T08:11:48;6.90;99.90
4399;DHT22;2213;49.720;7.296;2022-11-30T08:14:18;6.90;99.90
4399;DHT22;2213;49.720;7.296;2022-11-30T08:16:49;6.90;99.90
4399;DHT22;2213;49.720;7.296;2022-11-30T08:19:18;6.90;99.90
4399;DHT22;2213;49.720;7.296;2022-11-30T08:21:47;6.90;99.90
4399;DHT22;2213;49.720;7.296;2022-11-30T08:24:17;6.90;99.90
4399;DHT22;2213;49.720;7.296;2022-11-30T08:26:50;6.90;99.90
4399;DHT22;2213;49.720;7.296;2022-11-30T08:29:19;6.90;99.90
4399;DHT22;2213;49.720;7.296;2022-11-30T08:31:50;6.90;99.90
4399;DHT22;2213;49.720;7.296;2022-11-30T09:32:22;7.20;99.90
4399;DHT22;2213;49.720;7.296;2022-11-30T09:34:52;7.20;99.90
4399;DHT22;2213;49.720;7.296;2022-11-30T09:37:21;7.30;99.90
4399;DHT22;2213;49.720;7.296;2022-11-30T09:39:52;7.40;99.90
4399;DHT22;2213;49.720;7.296;2022-11-30T09:42:37;7.40;99.90
4399;DHT22;2213;49.720;7.296;2022-11-30T09:45:16;7.40;99.90
4399;DHT22;2213;49.720;7.296;2022-11-30T09:48:11;7.40;99.90
4399;DHT22;2213;49.720;7.296;2022-11-30T09:50:50;7.50;99.90
4399;DHT22;2213;49.720;7.296;2022-11-30T09:53:25;7.40;99.90
4399;DHT22;2213;49.720;7.296;2022-11-30T09:56:02;7.40;99.90
4399;DHT22;2213;49.720;7.296;2022-11-30T09:58:45;7.40;99.90
4399;DHT22;2213;49.720;7.296;2022-11-30T10:01:19;7.50;99.90
4399;DHT22;2213;49.720;7.296;2022-11-30T10:03:51;7.50;99.90
4399;DHT22;2213;49.720;7.296;2022-11-30T10:06:25;7.50;99.90
4399;DHT22;2213;49.720;7.296;2022-11-30T10:09:26;7.50;99.90
4399;DHT22;2213;49.720;7.296;2022-11-30T10:12:05;7.40;99.90
4399;DHT22;2213;49.720;7.296;2022-11-30T10:14:52;7.50;99.90
4399;DHT22;2213;49.720;7.296;2022-11-30T10:17:38;7.60;99.90
4399;DHT22;2213;49.720;7.296;2022-11-30T10:20:57;7.60;99.90
4399;DHT22;2213;49.720;7.296;2022-11-30T10:24:12;7.50;99.90
4399;DHT22;2213;49.720;7.296;2022-11-30T10:26:54;7.60;99.90
4399;DHT22;2213;49.720;7.296;2022-11-30T10:29:29;7.50;99.90
4399;DHT22;2213;49.720;7.296;2022-11-30T10:32:12;7.50;99.90
4399;DHT22;2213;49.720;7.296;2022-11-30T10:34:48;7.60;99.90
4399;DHT22;2213;49.720;7.296;2022-11-30T10:37:26;7.60;99.90
4399;DHT22;2213;49.720;7.296;2022-11-30T10:40:04;7.60;99.90
4399;DHT22;2213;49.720;7.296;2022-11-30T10:42:43;7.60;99.90
4399;DHT22;2213;49.720;7.296;2022-11-30T10:45:18;7.70;99.90
4399;DHT22;2213;49.720;7.296;2022-11-30T10:47:55;7.70;99.90
4399;DHT22;2213;49.720;7.296;2022-11-30T10:50:31;7.80;99.90
4399;DHT22;2213;49.720;7.296;2022-11-30T10:53:03;7.80;99.90
4399;DHT22;2213;49.720;7.296;2022-11-30T10:55:35;7.80;99.90
4399;DHT22;2213;49.720;7.296;2022-11-30T10:58:17;7.80;99.90
4399;DHT22;2213;49.720;7.296;2022-11-30T11:00:57;7.70;99.90
4399;DHT22;2213;49.720;7.296;2022-11-30T11:03:31;7.80;99.90
4399;DHT22;2213;49.720;7.296;2022-11-30T11:06:17;7.80;99.90
4399;DHT22;2213;49.720;7.296;2022-11-30T11:08:51;7.80;99.90
4399;DHT22;2213;49.720;7.296;2022-11-30T11:11:34;7.80;99.90
4399;DHT22;2213;49.720;7.296;2022-11-30T11:14:15;7.80;99.90
4399;DHT22;2213;49.720;7.296;2022-11-30T11:16:51;7.90;99.90
4399;DHT22;2213;49.720;7.296;2022-11-30T11:19:25;7.80;99.90
4399;DHT22;2213;49.720;7.296;2022-11-30T11:22:02;7.80;99.90
4399;DHT22;2213;49.720;7.296;2022-11-30T11:24:34;7.80;99.90
4399;DHT22;2213;49.720;7.296;2022-11-30T11:27:04;7.80;99.90
4399;DHT22;2213;49.720;7.296;2022-11-30T11:29:34;7.80;99.90
4399;DHT22;2213;49.720;7.296;2022-11-30T11:32:36;7.90;99.90
4399;DHT22;2213;49.720;7.296;2022-11-30T11:35:31;7.90;99.90
4399;DHT22;2213;49.720;7.296;2022-11-30T11:38:21;7.90;99.90
4399;DHT22;2213;49.720;7.296;2022-11-30T11:40:57;7.90;99.90
4399;DHT22;2213;49.720;7.296;2022-11-30T11:43:30;7.90;99.90
4399;DHT22;2213;49.720;7.296;2022-11-30T11:46:08;7.90;99.90
4399;DHT22;2213;49.720;7.296;2022-11-30T11:48:54;8.00;99.90
4399;DHT22;2213;49.720;7.296;2022-11-30T11:51:29;8.00;99.90
4399;DHT22;2213;49.720;7.296;2022-11-30T11:54:04;7.90;99.90
4399;DHT22;2213;49.720;7.296;2022-11-30T11:56:43;8.00;99.90
4399;DHT22;2213;49.720;7.296;2022-11-30T11:59:20;8.00;99.90
4399;DHT22;2213;49.720;7.296;2022-11-30T12:02:10;7.90;99.90
4399;DHT22;2213;49.720;7.296;2022-11-30T12:04:50;8.00;99.90
4399;DHT22;2213;49.720;7.296;2022-11-30T12:07:26;8.00;99.90
4399;DHT22;2213;49.720;7.296;2022-11-30T12:10:22;8.10;99.90
4399;DHT22;2213;49.720;7.296;2022-11-30T12:13:16;8.00;99.90
4399;DHT22;2213;49.720;7.296;2022-11-30T12:16:03;8.00;99.90
4399;DHT22;2213;49.720;7.296;2022-11-30T12:18:50;8.10;99.90
4399;DHT22;2213;49.720;7.296;2022-11-30T12:21:36;8.10;99.90
4399;DHT22;2213;49.720;7.296;2022-11-30T12:24:25;8.10;99.90
4399;DHT22;2213;49.720;7.296;2022-11-30T12:27:24;8.10;99.90
4399;DHT22;2213;49.720;7.296;2022-11-30T12:30:14;8.10;99.90
4399;DHT22;2213;49.720;7.296;2022-11-30T12:33:22;8.10;99.90
4399;DHT22;2213;49.720;7.296;2022-11-30T12:36:12;8.00;99.90
4399;DHT22;2213;49.720;7.296;2022-11-30T12:38:50;8.00;99.90
4399;DHT22;2213;49.720;7.296;2022-11-30T12:41:35;8.00;99.90
4399;DHT22;2213;49.720;7.296;2022-11-30T12:44:38;8.10;99.90
4399;DHT22;2213;49.720;7.296;2022-11-30T12:47:29;8.10;99.90
4399;DHT22;2213;49.720;7.296;2022-11-30T12:50:21;8.10;99.90
4399;DHT22;2213;49.720;7.296;2022-11-30T12:53:07;8.00;99.90
4399;DHT22;2213;49.720;7.296;2022-11-30T12:55:46;7.90;99.90
4399;DHT22;2213;49.720;7.296;2022-11-30T12:58:27;7.90;99.90
4399;DHT22;2213;49.720;7.296;2022-11-30T13:01:13;8.00;99.90
4399;DHT22;2213;49.720;7.296;2022-11-30T13:03:58;8.00;99.90
4399;DHT22;2213;49.720;7.296;2022-11-30T13:06:37;8.10;99.90
4399;DHT22;2213;49.720;7.296;2022-11-30T13:09:14;8.10;99.90
4399;DHT22;2213;49.720;7.296;2022-11-30T13:11:57;8.10;99.90
4399;DHT22;2213;49.720;7.296;2022-11-30T13:14:32;8.00;99.90
4399;DHT22;2213;49.720;7.296;2022-11-30T13:17:04;8.00;99.90
4399;DHT22;2213;49.720;7.296;2022-11-30T13:19:48;8.00;99.90
4399;DHT22;2213;49.720;7.296;2022-11-30T13:22:29;7.90;99.90
4399;DHT22;2213;49.720;7.296;2022-11-30T13:25:15;7.90;99.90
4399;DHT22;2213;49.720;7.296;2022-11-30T13:28:14;7.90;99.90
4399;DHT22;2213;49.720;7.296;2022-11-30T13:30:56;8.00;99.90
4399;DHT22;2213;49.720;7.296;2022-11-30T13:33:48;7.90;99.90
4399;DHT22;2213;49.720;7.296;2022-11-30T13:36:30;8.00;99.90
4399;DHT22;2213;49.720;7.296;2022-11-30T13:39:23;7.90;99.90
4399;DHT22;2213;49.720;7.296;2022-11-30T13:45:29;7.80;99.90
4399;DHT22;2213;49.720;7.296;2022-11-30T13:48:17;7.90;99.90
4399;DHT22;2213;49.720;7.296;2022-11-30T13:50:58;7.90;99.90
4399;DHT22;2213;49.720;7.296;2022-11-30T13:53:30;7.90;99.90
4399;DHT22;2213;49.720;7.296;2022-11-30T13:59:32;7.80;99.90
4399;DHT22;2213;49.720;7.296;2022-11-30T14:05:42;7.80;99.90
4399;DHT22;2213;49.720;7.296;2022-11-30T14:11:36;7.90;99.90
4399;DHT22;2213;49.720;7.296;2022-11-30T14:14:39;7.90;99.90
4399;DHT22;2213;49.720;7.296;2022-11-30T14:17:17;7.80;99.90
4399;DHT22;2213;49.720;7.296;2022-11-30T14:19:50;7.90;99.90
4399;DHT22;2213;49.720;7.296;2022-11-30T14:22:21;7.90;99.90
4399;DHT22;2213;49.720;7.296;2022-11-30T14:24:54;7.90;99.90
4399;DHT22;2213;49.720;7.296;2022-11-30T14:27:26;7.80;99.90
4399;DHT22;2213;49.720;7.296;2022-11-30T14:30:00;7.80;99.90
4399;DHT22;2213;49.720;7.296;2022-11-30T14:32:35;7.70;99.90
4399;DHT22;2213;49.720;7.296;2022-11-30T14:35:11;7.70;99.90
4399;DHT22;2213;49.720;7.296;2022-11-30T14:37:45;7.80;99.90
4399;DHT22;2213;49.720;7.296;2022-11-30T14:40:21;7.70;99.90
4399;DHT22;2213;49.720;7.296;2022-11-30T14:42:54;7.50;99.90
4399;DHT22;2213;49.720;7.296;2022-11-30T14:45:26;7.50;99.90
4399;DHT22;2213;49.720;7.296;2022-11-30T14:48:05;7.50;99.90
4399;DHT22;2213;49.720;7.296;2022-11-30T14:50:41;7.60;99.90
4399;DHT22;2213;49.720;7.296;2022-11-30T14:53:22;7.60;99.90
4399;DHT22;2213;49.720;7.296;2022-11-30T14:56:04;7.60;99.90
4399;DHT22;2213;49.720;7.296;2022-11-30T14:58:44;7.60;99.90
4399;DHT22;2213;49.720;7.296;2022-11-30T15:01:22;7.50;99.90
4399;DHT22;2213;49.720;7.296;2022-11-30T15:03:56;7.50;99.90
4399;DHT22;2213;49.720;7.296;2022-11-30T15:06:32;7.40;99.90
4399;DHT22;2213;49.720;7.296;2022-11-30T15:09:02;7.40;99.90
4399;DHT22;2213;49.720;7.296;2022-11-30T15:11:33;7.30;99.90
4399;DHT22;2213;49.720;7.296;2022-11-30T15:14:09;7.40;99.90
4399;DHT22;2213;49.720;7.296;2022-11-30T15:16:46;7.20;99.90
4399;DHT22;2213;49.720;7.296;2022-11-30T15:19:21;7.10;99.90
4399;DHT22;2213;49.720;7.296;2022-11-30T15:21:51;7.20;99.90
4399;DHT22;2213;49.720;7.296;2022-11-30T15:24:21;7.10;99.90
4399;DHT22;2213;49.720;7.296;2022-11-30T15:26:55;7.10;99.90
4399;DHT22;2213;49.720;7.296;2022-11-30T15:29:34;7.10;99.90
4399;DHT22;2213;49.720;7.296;2022-11-30T15:32:14;7.20;99.90
4399;DHT22;2213;49.720;7.296;2022-11-30T15:34:47;7.20;99.90
4399;DHT22;2213;49.720;7.296;2022-11-30T15:37:28;7.10;99.90
4399;DHT22;2213;49.720;7.296;2022-11-30T15:40:00;7.10;99.90
4399;DHT22;2213;49.720;7.296;2022-11-30T15:42:37;7.10;99.90
4399;DHT22;2213;49.720;7.296;2022-11-30T15:45:15;7.00;99.90
4399;DHT22;2213;49.720;7.296;2022-11-30T15:47:49;7.00;99.90
4399;DHT22;2213;49.720;7.296;2022-11-30T15:53:33;7.10;99.90
4399;DHT22;2213;49.720;7.296;2022-11-30T15:56:22;7.00;99.90
4399;DHT22;2213;49.720;7.296;2022-11-30T15:59:02;7.00;99.90
4399;DHT22;2213;49.720;7.296;2022-11-30T16:01:50;6.90;99.90
4399;DHT22;2213;49.720;7.296;2022-11-30T16:04:29;6.90;99.90
4399;DHT22;2213;49.720;7.296;2022-11-30T16:07:47;6.80;99.90
4399;DHT22;2213;49.720;7.296;2022-11-30T16:10:21;6.90;99.90
4399;DHT22;2213;49.720;7.296;2022-11-30T16:12:52;7.00;99.90
4399;DHT22;2213;49.720;7.296;2022-11-30T16:15:25;7.00;99.90
4399;DHT22;2213;49.720;7.296;2022-11-30T16:18:14;7.00;99.90
4399;DHT22;2213;49.720;7.296;2022-11-30T16:20:47;7.10;99.90
4399;DHT22;2213;49.720;7.296;2022-11-30T16:23:19;7.00;99.90
4399;DHT22;2213;49.720;7.296;2022-11-30T16:25:49;7.00;99.90
4399;DHT22;2213;49.720;7.296;2022-11-30T16:28:19;7.00;99.90
4399;DHT22;2213;49.720;7.296;2022-11-30T16:30:52;7.00;99.90
4399;DHT22;2213;49.720;7.296;2022-11-30T16:33:25;7.10;99.90
4399;DHT22;2213;49.720;7.296;2022-11-30T16:35:56;7.10;99.90
4399;DHT22;2213;49.720;7.296;2022-11-30T16:38:28;7.00;99.90
4399;DHT22;2213;49.720;7.296;2022-11-30T16:41:12;7.00;99.90
4399;DHT22;2213;49.720;7.296;2022-11-30T16:43:43;7.00;99.90
4399;DHT22;2213;49.720;7.296;2022-11-30T16:46:17;7.00;99.90
4399;DHT22;2213;49.720;7.296;2022-11-30T16:48:47;7.10;99.90
4399;DHT22;2213;49.720;7.296;2022-11-30T16:51:19;7.00;99.90
4399;DHT22;2213;49.720;7.296;2022-11-30T16:53:50;7.10;99.90
4399;DHT22;2213;49.720;7.296;2022-11-30T16:56:21;7.00;99.90
4399;DHT22;2213;49.720;7.296;2022-11-30T16:58:50;7.00;99.90
4399;DHT22;2213;49.720;7.296;2022-11-30T17:01:25;7.10;99.90
4399;DHT22;2213;49.720;7.296;2022-11-30T17:04:09;7.10;99.90
4399;DHT22;2213;49.720;7.296;2022-11-30T17:06:41;7.10;99.90
4399;DHT22;2213;49.720;7.296;2022-11-30T17:09:17;7.10;99.90
4399;DHT22;2213;49.720;7.296;2022-11-30T17:11:47;7.10;99.90
4399;DHT22;2213;49.720;7.296;2022-11-30T17:14:19;7.10;99.90
4399;DHT22;2213;49.720;7.296;2022-11-30T17:16:51;7.10;99.90
4399;DHT22;2213;49.720;7.296;2022-11-30T17:19:20;7.10;99.90
4399;DHT22;2213;49.720;7.296;2022-11-30T17:21:49;7.10;99.90
4399;DHT22;2213;49.720;7.296;2022-11-30T17:24:18;7.00;99.90
4399;DHT22;2213;49.720;7.296;2022-11-30T17:26:46;7.10;99.90
4399;DHT22;2213;49.720;7.296;2022-11-30T17:29:17;7.00;99.90
4399;DHT22;2213;49.720;7.296;2022-11-30T17:31:45;7.00;99.90
4399;DHT22;2213;49.720;7.296;2022-11-30T17:34:16;6.90;99.90
4399;DHT22;2213;49.720;7.296;2022-11-30T17:36:46;6.80;99.90
4399;DHT22;2213;49.720;7.296;2022-11-30T17:39:17;6.80;99.90
4399;DHT22;2213;49.720;7.296;2022-11-30T17:41:47;6.80;99.90
4399;DHT22;2213;49.720;7.296;2022-11-30T17:44:16;6.80;99.90
4399;DHT22;2213;49.720;7.296;2022-11-30T17:46:46;6.90;99.90
4399;DHT22;2213;49.720;7.296;2022-11-30T17:49:16;7.00;99.90
4399;DHT22;2213;49.720;7.296;2022-11-30T17:51:45;7.00;99.90
4399;DHT22;2213;49.720;7.296;2022-11-30T17:54:15;6.90;99.90
4399;DHT22;2213;49.720;7.296;2022-11-30T17:56:46;6.90;99.90
4399;DHT22;2213;49.720;7.296;2022-11-30T17:59:15;6.80;99.90
4399;DHT22;2213;49.720;7.296;2022-11-30T18:01:44;6.90;99.90
4399;DHT22;2213;49.720;7.296;2022-11-30T18:04:15;6.90;99.90
4399;DHT22;2213;49.720;7.296;2022-11-30T18:06:45;6.80;99.90
4399;DHT22;2213;49.720;7.296;2022-11-30T18:09:15;6.90;99.90
4399;DHT22;2213;49.720;7.296;2022-11-30T18:11:43;6.90;99.90
4399;DHT22;2213;49.720;7.296;2022-11-30T18:14:13;6.90;99.90
4399;DHT22;2213;49.720;7.296;2022-11-30T18:16:43;6.80;99.90
4399;DHT22;2213;49.720;7.296;2022-11-30T18:19:15;6.90;99.90
4399;DHT22;2213;49.720;7.296;2022-11-30T18:21:45;6.90;99.90
4399;DHT22;2213;49.720;7.296;2022-11-30T18:24:15;6.80;99.90
4399;DHT22;2213;49.720;7.296;2022-11-30T18:26:51;6.80;99.90